Time;durP1;ratioP1;P1;durP2;ratioP2;P2;SDS_P1;SDS_P2;PMS_P1;PMS_P2;Temp;Humidity;BMP_temperature;BMP_pressure;BME280_temperature;BME280_humidity;BME280_pressure;Samples;Min_cycle;Max_cycle;Signal;HPM_P1;HPM_P2
2022/07/08 00:00:37;;;;;;;1.73;1.45;;;;;;;29.92;38.98;96746.31;5075676;28;20028;-27
2022/07/08 00:03:02;;;;;;;1.55;1.30;;;;;;;29.89;38.93;96764.19;5075609;28;20032;-27
2022/07/08 00:05:28;;;;;;;1.48;1.33;;;;;;;29.88;39.27;96757.09;5075675;28;20028;-27
2022/07/08 00:07:53;;;;;;;2.53;1.35;;;;;;;29.92;38.79;96757.50;5075416;28;20098;-27
2022/07/08 00:10:19;;;;;;;2.25;1.65;;;;;;;29.90;38.94;96760.09;5075575;28;20119;-27
2022/07/08 00:12:44;;;;;;;2.15;1.45;;;;;;;29.88;39.07;96762.69;5075300;28;20035;-28
2022/07/08 00:15:10;;;;;;;3.08;1.30;;;;;;;29.91;39.03;96767.19;5075570;28;20025;-27
2022/07/08 00:17:36;;;;;;;2.97;1.50;;;;;;;29.92;38.58;96763.81;5075265;28;20032;-27
2022/07/08 00:20:04;;;;;;;2.17;1.25;;;;;;;29.95;38.68;96759.19;5075536;28;20470;-28
2022/07/08 00:22:29;;;;;;;2.05;1.40;;;;;;;29.83;38.70;96755.94;5075257;28;20554;-27
2022/07/08 00:24:55;;;;;;;1.73;1.23;;;;;;;29.94;38.57;96757.69;5074101;28;20111;-29
2022/07/08 00:27:20;;;;;;;2.85;1.30;;;;;;;29.97;38.34;96770.59;5075275;28;20026;-27
2022/07/08 00:29:46;;;;;;;3.42;1.60;;;;;;;29.91;38.16;96770.00;5075200;28;20021;-27
2022/07/08 00:32:11;;;;;;;1.90;1.30;;;;;;;29.91;37.98;96778.38;5075150;28;20036;-27
2022/07/08 00:34:37;;;;;;;2.33;1.30;;;;;;;29.95;38.11;96770.38;5074875;28;20021;-27
2022/07/08 00:37:03;;;;;;;1.42;1.20;;;;;;;29.90;37.99;96772.03;5074266;28;20025;-27
2022/07/08 00:39:29;;;;;;;1.60;1.45;;;;;;;29.95;37.55;96776.72;5075046;28;20349;-27
2022/07/08 00:41:54;;;;;;;1.67;1.15;;;;;;;29.93;37.59;96784.16;5074912;28;20020;-28
2022/07/08 00:44:20;;;;;;;2.85;1.67;;;;;;;29.89;37.36;96786.56;5074812;28;20092;-27
2022/07/08 00:46:45;;;;;;;1.30;1.20;;;;;;;29.91;37.84;96795.16;5074896;28;20097;-27
2022/07/08 00:49:10;;;;;;;1.35;1.25;;;;;;;29.92;37.40;96793.88;5073544;28;20020;-27
2022/07/08 00:51:37;;;;;;;1.63;1.25;;;;;;;29.90;37.15;96794.41;5074824;28;20024;-27
2022/07/08 00:54:03;;;;;;;2.15;1.30;;;;;;;29.85;37.61;96791.75;5074648;28;20029;-27
2022/07/08 00:56:29;;;;;;;2.20;1.30;;;;;;;29.86;37.40;96798.84;5074538;28;20471;-27
2022/07/08 00:58:55;;;;;;;1.30;1.20;;;;;;;29.86;37.30;96793.25;5073322;28;20035;-27
2022/07/08 01:01:21;;;;;;;2.28;1.40;;;;;;;29.86;37.24;96804.44;5071680;28;20028;-29
2022/07/08 01:03:47;;;;;;;1.30;1.13;;;;;;;29.89;37.09;96794.94;5073043;28;20027;-27
2022/07/08 01:06:13;;;;;;;1.42;1.20;;;;;;;29.84;36.73;96798.63;5074527;28;20126;-28
2022/07/08 01:08:39;;;;;;;2.20;1.42;;;;;;;29.73;37.21;96807.31;5074436;28;20479;-27
2022/07/08 01:11:06;;;;;;;1.40;1.23;;;;;;;29.81;36.78;96802.50;5074299;28;20047;-27
2022/07/08 01:13:32;;;;;;;1.35;1.20;;;;;;;29.79;36.94;96808.69;5074267;28;20036;-27
2022/07/08 01:15:58;;;;;;;1.80;1.40;;;;;;;29.80;36.65;96795.41;5074205;28;20036;-27
2022/07/08 01:18:29;;;;;;;1.38;1.23;;;;;;;29.78;36.69;96798.03;5074178;28;20017;-28
2022/07/08 01:20:56;;;;;;;1.55;1.30;;;;;;;29.83;36.74;96792.28;5074137;28;20032;-27
2022/07/08 01:23:21;;;;;;;2.28;1.20;;;;;;;29.82;36.88;96792.84;5072801;28;20055;-27
2022/07/08 01:25:48;;;;;;;1.35;1.17;;;;;;;29.81;36.62;96786.50;5073974;28;20051;-27
2022/07/08 01:28:17;;;;;;;3.40;1.35;;;;;;;29.82;36.74;96784.44;5073927;28;20099;-27
2022/07/08 01:30:43;;;;;;;1.40;1.30;;;;;;;29.77;36.67;96783.31;5073848;28;20032;-27
2022/07/08 01:33:09;;;;;;;1.85;1.20;;;;;;;29.74;36.92;96778.06;5073751;28;20025;-27
2022/07/08 01:35:35;;;;;;;2.28;1.20;;;;;;;29.73;36.47;96780.09;5074048;28;20378;-27
2022/07/08 01:38:00;;;;;;;1.05;0.93;;;;;;;29.67;36.54;96781.56;5073733;28;20026;-27
2022/07/08 01:40:26;;;;;;;1.75;1.10;;;;;;;29.69;36.77;96779.69;5073910;28;20531;-27
2022/07/08 01:42:51;;;;;;;2.92;1.30;;;;;;;29.64;36.53;96777.78;5073826;28;20025;-27
2022/07/08 01:45:17;;;;;;;1.83;1.60;;;;;;;29.68;36.46;96778.19;5073598;28;20035;-27
2022/07/08 01:47:42;;;;;;;1.30;1.20;;;;;;;29.69;36.69;96788.06;5073614;28;20020;-27
2022/07/08 01:50:08;;;;;;;1.30;1.20;;;;;;;29.70;36.62;96788.81;5073700;28;20024;-27
2022/07/08 01:52:34;;;;;;;1.30;1.20;;;;;;;29.59;36.71;96784.25;5073550;28;20024;-26
2022/07/08 01:54:59;;;;;;;1.33;1.23;;;;;;;29.63;36.65;96782.63;5073507;28;20178;-27
2022/07/08 01:57:25;;;;;;;2.30;1.30;;;;;;;29.62;36.42;96785.97;5073716;28;20020;-27
2022/07/08 01:59:51;;;;;;;2.70;1.48;;;;;;;29.50;36.69;96777.13;5073693;28;20561;-27
2022/07/08 02:02:19;;;;;;;2.13;1.27;;;;;;;29.59;36.57;96776.63;5073502;28;20386;-27
2022/07/08 02:04:45;;;;;;;1.98;1.40;;;;;;;29.60;36.23;96772.53;5073583;28;20031;-27
2022/07/08 02:07:11;;;;;;;2.75;1.33;;;;;;;29.60;36.35;96761.34;5073218;28;20052;-27
2022/07/08 02:09:38;;;;;;;1.45;1.10;;;;;;;29.63;36.30;96770.69;5073274;28;20035;-27
2022/07/08 02:12:21;;;;;;;2.08;1.60;;;;;;;29.62;36.27;96763.63;5072161;28;20025;-27
2022/07/08 02:15:01;;;;;;;3.03;1.10;;;;;;;29.63;35.98;96771.44;5073243;28;20029;-27
2022/07/08 02:17:29;;;;;;;1.75;1.25;;;;;;;29.62;35.95;96758.78;5072046;28;20047;-27
2022/07/08 02:19:55;;;;;;;1.42;1.30;;;;;;;29.67;36.02;96759.19;5073217;28;20024;-27
2022/07/08 02:22:20;;;;;;;1.30;1.20;;;;;;;29.59;35.82;96748.69;5073522;28;20119;-27
2022/07/08 02:24:47;;;;;;;2.30;1.30;;;;;;;29.59;36.05;96747.94;5073369;28;20029;-27
2022/07/08 02:27:13;;;;;;;2.50;1.45;;;;;;;29.56;35.84;96744.19;5073362;28;20024;-27
2022/07/08 02:29:38;;;;;;;1.73;1.33;;;;;;;29.59;35.92;96754.28;5073380;28;20115;-27
2022/07/08 02:32:04;;;;;;;1.33;1.23;;;;;;;29.61;36.20;96764.91;5073081;28;20039;-27
2022/07/08 02:34:30;;;;;;;2.05;1.30;;;;;;;29.56;36.08;96766.53;5072972;28;20025;-27
2022/07/08 02:36:55;;;;;;;1.70;1.10;;;;;;;29.44;35.97;96773.69;5073152;28;20106;-27
2022/07/08 02:39:21;;;;;;;1.38;1.23;;;;;;;29.40;35.82;96767.72;5073111;28;20034;-28
2022/07/08 02:41:47;;;;;;;4.50;1.50;;;;;;;29.48;35.73;96768.53;5073019;28;20024;-27
2022/07/08 02:44:13;;;;;;;1.60;1.30;;;;;;;29.43;35.73;96769.41;5072976;28;20459;-29
2022/07/08 02:46:39;;;;;;;2.63;1.50;;;;;;;29.45;35.66;96775.19;5073223;28;20029;-27
2022/07/08 02:49:04;;;;;;;2.75;1.35;;;;;;;29.43;35.66;96777.03;5072924;28;20029;-28
2022/07/08 02:51:30;;;;;;;1.45;1.35;;;;;;;29.36;35.97;96775.66;5072918;28;20063;-28
2022/07/08 02:53:56;;;;;;;2.00;1.30;;;;;;;29.46;35.50;96773.16;5071801;28;20115;-27
2022/07/08 02:56:21;;;;;;;1.95;1.40;;;;;;;29.45;35.73;96772.41;5072953;28;20024;-27
2022/07/08 02:58:47;;;;;;;2.72;1.40;;;;;;;29.43;35.49;96774.22;5072880;28;20029;-27
2022/07/08 03:01:12;;;;;;;2.88;1.50;;;;;;;29.34;35.78;96769.84;5075571;28;20382;-27
2022/07/08 03:03:38;;;;;;;3.90;1.30;;;;;;;29.43;35.34;96788.97;5076758;28;20024;-27
2022/07/08 03:06:03;;;;;;;1.58;1.45;;;;;;;29.45;35.46;96782.81;5076504;28;20186;-27
2022/07/08 03:08:29;;;;;;;1.48;1.17;;;;;;;29.43;35.66;96779.81;5076780;28;20398;-27
2022/07/08 03:10:55;;;;;;;1.50;1.40;;;;;;;29.33;35.24;96792.75;5076871;28;20109;-27
2022/07/08 03:13:21;;;;;;;1.75;1.30;;;;;;;29.34;35.00;96786.63;5076532;28;20021;-27
2022/07/08 03:15:48;;;;;;;1.75;1.33;;;;;;;29.24;35.69;96791.19;5076604;28;20067;-27
2022/07/08 03:18:13;;;;;;;1.63;1.40;;;;;;;29.30;35.05;96792.53;5076758;28;20074;-27
2022/07/08 03:20:39;;;;;;;1.55;1.20;;;;;;;29.34;35.10;96783.81;5076586;28;20099;-27
2022/07/08 03:23:04;;;;;;;2.08;1.20;;;;;;;29.36;35.02;96792.41;5076316;28;20029;-27
2022/07/08 03:25:30;;;;;;;2.92;1.65;;;;;;;29.37;34.65;96804.34;5076424;28;20028;-27
2022/07/08 03:27:56;;;;;;;2.45;1.30;;;;;;;29.39;34.87;96799.75;5076492;28;20028;-26
2022/07/08 03:30:22;;;;;;;1.17;1.05;;;;;;;29.33;34.82;96810.25;5076199;28;20028;-28
2022/07/08 03:32:47;;;;;;;1.10;1.00;;;;;;;29.36;35.06;96809.19;5075899;28;20029;-27
2022/07/08 03:35:13;;;;;;;1.42;1.33;;;;;;;29.34;35.36;96817.34;5076105;28;20032;-27
2022/07/08 03:37:42;;;;;;;1.70;1.25;;;;;;;29.36;34.99;96820.34;5076279;28;20029;-28
2022/07/08 03:42:53;;;;;;;2.65;1.40;;;;;;;29.35;34.78;96823.69;5075962;28;20081;-26
2022/07/08 03:45:18;;;;;;;2.97;1.48;;;;;;;29.35;34.85;96824.44;5076108;28;20447;-28
2022/07/08 03:47:44;;;;;;;2.45;1.15;;;;;;;29.30;34.73;96828.84;5076011;28;20040;-27
2022/07/08 03:50:09;;;;;;;1.73;1.30;;;;;;;29.33;34.80;96817.88;5075818;28;20025;-27
2022/07/08 03:52:35;;;;;;;2.33;1.20;;;;;;;29.28;34.77;96825.13;5075804;28;20032;-27
2022/07/08 03:55:00;;;;;;;1.48;1.27;;;;;;;29.30;34.79;96819.75;5075715;28;20024;-27
2022/07/08 03:57:26;;;;;;;1.48;1.25;;;;;;;29.30;34.48;96817.66;5074486;28;20406;-27
2022/07/08 03:59:51;;;;;;;2.50;1.17;;;;;;;29.24;34.91;96816.31;5074527;28;20032;-27
2022/07/08 04:02:17;;;;;;;1.83;1.15;;;;;;;29.29;34.56;96826.63;5076015;28;20052;-27
2022/07/08 04:04:42;;;;;;;1.92;1.13;;;;;;;29.28;34.88;96822.31;5075556;28;20020;-26
2022/07/08 04:07:08;;;;;;;3.08;1.23;;;;;;;29.26;34.82;96827.69;5075300;28;20052;-27
2022/07/08 04:09:33;;;;;;;2.08;1.42;;;;;;;29.23;34.91;96837.91;5075484;28;20040;-28
2022/07/08 04:11:59;;;;;;;2.08;1.55;;;;;;;29.29;34.80;96837.78;5074115;28;20020;-27
2022/07/08 04:14:24;;;;;;;4.63;1.23;;;;;;;29.28;34.69;96842.63;5075351;28;20358;-27
2022/07/08 04:16:50;;;;;;;2.38;1.35;;;;;;;29.23;34.73;96846.28;5075482;28;20028;-28
2022/07/08 04:19:15;;;;;;;2.75;1.27;;;;;;;29.25;34.98;96854.13;5075436;28;20438;-28
2022/07/08 04:21:41;;;;;;;2.28;1.10;;;;;;;29.24;34.78;96858.22;5075290;28;20413;-27
2022/07/08 04:24:07;;;;;;;3.58;1.38;;;;;;;29.21;34.93;96854.44;5075244;28;20021;-27
2022/07/08 04:26:32;;;;;;;2.65;1.50;;;;;;;29.23;34.99;96862.28;5074974;28;20021;-27
2022/07/08 04:28:59;;;;;;;2.28;1.20;;;;;;;29.26;35.10;96869.59;5075310;28;20529;-27
2022/07/08 04:31:26;;;;;;;1.45;1.17;;;;;;;29.27;34.79;96873.91;5075324;28;20057;-27
2022/07/08 04:33:53;;;;;;;3.10;1.25;;;;;;;29.20;35.08;96877.34;5075014;28;20051;-27
2022/07/08 04:36:18;;;;;;;3.38;1.60;;;;;;;29.24;35.14;96874.97;5074983;28;20452;-26
2022/07/08 04:38:44;;;;;;;3.08;1.15;;;;;;;29.21;35.15;96876.81;5074941;28;20027;-27
2022/07/08 04:41:09;;;;;;;2.17;1.30;;;;;;;29.22;35.26;96875.50;5074921;28;20020;-27
2022/07/08 04:43:35;;;;;;;2.40;1.30;;;;;;;29.20;35.21;96871.75;5075110;28;20012;-27
2022/07/08 04:46:01;;;;;;;1.98;1.25;;;;;;;29.19;35.23;96884.22;5074770;28;20386;-27
2022/07/08 04:48:27;;;;;;;1.63;1.17;;;;;;;29.20;35.39;96874.53;5074927;28;20024;-27
2022/07/08 04:50:52;;;;;;;1.92;1.23;;;;;;;29.26;35.24;96869.59;5074747;28;20078;-28
2022/07/08 04:53:18;;;;;;;3.33;1.40;;;;;;;29.22;35.55;96871.97;5074445;28;20026;-27
2022/07/08 04:55:43;;;;;;;2.10;1.20;;;;;;;29.21;35.41;96878.84;5074667;28;20032;-28
2022/07/08 04:58:08;;;;;;;2.17;1.10;;;;;;;29.19;35.52;96881.41;5074538;28;20024;-27
2022/07/08 05:00:34;;;;;;;1.83;1.30;;;;;;;29.18;35.65;96885.50;5076560;28;20028;-27
2022/07/08 05:03:01;;;;;;;2.60;1.27;;;;;;;29.16;35.65;96882.53;5088770;28;20080;-27
2022/07/08 05:05:27;;;;;;;2.33;1.17;;;;;;;29.07;35.81;96885.75;5090015;28;20048;-26
2022/07/08 05:07:53;;;;;;;3.83;1.20;;;;;;;29.16;35.69;96882.53;5072254;28;20422;-27
2022/07/08 05:10:26;;;;;;;3.47;1.45;;;;;;;29.11;35.68;96884.13;5072448;28;20024;-27
2022/07/08 05:12:52;;;;;;;1.67;1.15;;;;;;;29.14;35.52;96894.22;5072006;28;20020;-26
2022/07/08 05:15:18;;;;;;;2.20;1.20;;;;;;;29.15;35.66;96892.19;5072325;28;20486;-28
2022/07/08 05:17:43;;;;;;;3.00;1.38;;;;;;;29.06;35.78;96893.38;5075986;28;20012;-27
2022/07/08 05:20:10;;;;;;;2.15;1.00;;;;;;;29.18;35.93;96899.47;5092474;28;20024;-27
2022/07/08 05:22:36;;;;;;;4.03;1.30;;;;;;;29.07;35.69;96903.25;5092143;28;20028;-27
2022/07/08 05:25:06;;;;;;;2.80;1.35;;;;;;;29.14;35.73;96905.41;5091924;28;20028;-27
2022/07/08 05:27:32;;;;;;;2.05;0.93;;;;;;;29.12;35.84;96896.81;5090417;28;20061;-28
2022/07/08 05:29:57;;;;;;;2.80;1.10;;;;;;;29.07;35.93;96906.03;5092391;28;20055;-27
2022/07/08 05:32:23;;;;;;;2.25;1.10;;;;;;;29.13;35.63;96900.34;5092194;28;20481;-27
2022/07/08 05:34:49;;;;;;;1.52;1.00;;;;;;;29.13;35.58;96908.72;5092088;28;20035;-27
2022/07/08 05:37:14;;;;;;;2.33;0.90;;;;;;;29.09;35.65;96909.06;5091896;28;20035;-28
2022/07/08 05:39:41;;;;;;;3.63;1.30;;;;;;;29.08;35.75;96909.59;5092229;28;20140;-27
2022/07/08 05:42:08;;;;;;;2.30;0.80;;;;;;;29.16;35.71;96918.84;5091739;28;20024;-26
2022/07/08 05:44:34;;;;;;;2.17;0.90;;;;;;;29.08;35.84;96917.97;5073004;28;20036;-28
2022/07/08 05:47:00;;;;;;;2.95;1.10;;;;;;;29.17;35.65;96920.34;5071466;28;20386;-28
2022/07/08 05:49:25;;;;;;;3.45;1.10;;;;;;;29.04;35.88;96923.91;5071652;28;20035;-27
2022/07/08 05:51:51;;;;;;;2.53;1.00;;;;;;;29.05;35.79;96933.03;5071693;28;20032;-26
2022/07/08 05:54:16;;;;;;;2.42;0.98;;;;;;;28.99;36.05;96929.59;5071308;28;20032;-27
2022/07/08 05:56:42;;;;;;;2.50;1.10;;;;;;;29.03;35.59;96936.34;5071582;28;20028;-27
2022/07/08 05:59:07;;;;;;;2.90;1.20;;;;;;;28.93;35.91;96935.28;5071425;28;20032;-27
2022/07/08 06:01:32;;;;;;;2.17;0.85;;;;;;;29.04;35.60;96939.91;5071587;28;20024;-27
2022/07/08 06:03:58;;;;;;;2.72;1.10;;;;;;;29.05;35.73;96936.56;5071313;28;20509;-26
2022/07/08 06:06:23;;;;;;;1.80;1.00;;;;;;;29.09;35.69;96941.81;5071121;28;20517;-27
2022/07/08 06:08:49;;;;;;;3.00;1.15;;;;;;;29.04;35.73;96943.44;5072642;28;20501;-27
2022/07/08 06:11:14;;;;;;;3.28;1.00;;;;;;;29.00;35.87;96928.28;5079836;28;20031;-26
2022/07/08 06:13:40;;;;;;;3.10;0.90;;;;;;;29.04;35.73;96934.31;5081614;28;20410;-26
2022/07/08 06:16:06;;;;;;;1.70;0.80;;;;;;;29.12;35.43;96932.38;5079650;28;20027;-26
2022/07/08 06:18:33;;;;;;;1.83;1.13;;;;;;;28.95;35.60;96927.88;5085023;28;20028;-26
2022/07/08 06:20:59;;;;;;;3.05;1.05;;;;;;;28.95;35.71;96941.81;5091472;28;20043;-27
2022/07/08 06:23:24;;;;;;;2.67;0.90;;;;;;;28.89;35.78;96938.41;5091321;28;20024;-27
2022/07/08 06:25:50;;;;;;;2.10;0.80;;;;;;;28.99;35.63;96932.38;5089653;28;20611;-27
2022/07/08 06:28:15;;;;;;;1.92;1.00;;;;;;;28.90;35.84;96947.53;5091485;28;20032;-27
2022/07/08 06:30:42;;;;;;;1.55;0.80;;;;;;;29.02;35.43;96948.06;5088865;28;20328;-27
2022/07/08 06:33:08;;;;;;;1.52;0.88;;;;;;;28.98;35.73;96942.03;5073404;28;20048;-27
2022/07/08 06:35:33;;;;;;;1.65;1.10;;;;;;;29.01;35.48;96949.34;5074656;28;20052;-27
2022/07/08 06:37:59;;;;;;;2.67;0.98;;;;;;;29.02;35.38;96953.66;5077185;28;20029;-27
2022/07/08 06:40:25;;;;;;;1.73;0.80;;;;;;;28.95;35.40;96961.38;5077303;28;20020;-27
2022/07/08 06:42:51;;;;;;;2.25;1.05;;;;;;;28.97;35.29;96957.28;5077128;28;20471;-27
2022/07/08 06:45:17;;;;;;;1.42;0.68;;;;;;;29.01;35.26;96952.91;5077132;28;20028;-26
2022/07/08 06:47:43;;;;;;;1.92;1.10;;;;;;;28.99;35.55;96949.88;5077089;28;20070;-26
2022/07/08 06:50:09;;;;;;;2.72;0.90;;;;;;;29.07;35.27;96955.56;5077033;28;20039;-27
2022/07/08 06:52:37;;;;;;;2.63;1.15;;;;;;;28.99;35.39;96961.06;5084293;28;20110;-27
2022/07/08 06:55:03;;;;;;;1.48;0.82;;;;;;;29.02;35.12;96953.66;5085938;28;20552;-27
2022/07/08 06:57:28;;;;;;;1.25;0.75;;;;;;;28.99;35.31;96951.91;5096087;28;20123;-26
2022/07/08 06:59:54;;;;;;;3.55;0.82;;;;;;;28.78;35.26;96954.59;5096872;28;20035;-26
2022/07/08 07:02:20;;;;;;;3.42;0.80;;;;;;;28.89;35.35;96952.38;5096974;28;20055;-27
2022/07/08 07:04:45;;;;;;;1.83;0.70;;;;;;;28.96;35.14;96956.53;5097111;28;20073;-27
2022/07/08 07:07:11;;;;;;;2.53;1.05;;;;;;;28.88;35.15;96964.81;5096960;28;20048;-28
2022/07/08 07:09:38;;;;;;;3.50;0.88;;;;;;;28.81;35.34;96961.91;5096897;28;20024;-27
2022/07/08 07:12:05;;;;;;;4.47;0.98;;;;;;;28.71;35.50;96953.16;5097253;28;20024;-27
2022/07/08 07:14:31;;;;;;;2.55;0.85;;;;;;;28.82;35.25;96947.41;5096874;28;20099;-27
2022/07/08 07:16:57;;;;;;;2.75;0.93;;;;;;;28.75;35.06;96941.69;5095041;28;20028;-26
2022/07/08 07:19:22;;;;;;;1.60;0.75;;;;;;;28.79;34.78;96940.13;5087144;28;20020;-27
2022/07/08 07:21:48;;;;;;;2.17;0.80;;;;;;;28.83;34.77;96948.16;5096785;28;20389;-27
2022/07/08 07:24:13;;;;;;;1.77;0.70;;;;;;;28.87;34.88;96943.75;5096731;28;20023;-27
2022/07/08 07:26:39;;;;;;;2.00;0.70;;;;;;;28.79;34.82;96947.75;5096770;28;20020;-26
2022/07/08 07:29:05;;;;;;;1.92;1.10;;;;;;;28.77;35.05;96944.72;5096194;28;20032;-28
2022/07/08 07:31:30;;;;;;;3.58;0.70;;;;;;;28.83;34.66;96937.75;5095740;28;20049;-27
2022/07/08 07:33:55;;;;;;;1.85;0.60;;;;;;;28.87;34.74;96949.34;5095845;28;20431;-27
2022/07/08 07:36:21;;;;;;;0.90;0.60;;;;;;;28.79;34.93;96953.34;5096584;28;20428;-27
2022/07/08 07:38:47;;;;;;;1.30;0.73;;;;;;;28.86;34.64;96947.09;5096629;28;20023;-27
2022/07/08 07:41:12;;;;;;;1.55;0.63;;;;;;;28.83;34.87;96934.19;5096251;28;20462;-27
2022/07/08 07:43:38;;;;;;;1.95;0.80;;;;;;;28.89;34.68;96935.59;5096241;28;20051;-26
2022/07/08 07:46:03;;;;;;;1.60;0.88;;;;;;;28.80;35.03;96944.44;5096358;28;20023;-27
2022/07/08 07:48:29;;;;;;;2.00;0.70;;;;;;;28.82;34.71;96950.19;5096534;28;20038;-27
2022/07/08 07:50:55;;;;;;;1.35;0.70;;;;;;;28.83;34.75;96937.75;5096253;28;20024;-27
2022/07/08 07:53:20;;;;;;;3.20;0.90;;;;;;;28.84;34.81;96949.66;5096037;28;20097;-27
2022/07/08 07:55:46;;;;;;;1.52;0.80;;;;;;;28.83;34.70;96948.91;5095927;28;20035;-28
2022/07/08 07:58:11;;;;;;;3.45;0.90;;;;;;;28.75;34.71;96942.44;5096157;28;20027;-26
2022/07/08 08:00:37;;;;;;;1.50;0.55;;;;;;;28.73;34.64;96949.84;5095976;28;20028;-27
2022/07/08 08:03:03;;;;;;;2.38;0.90;;;;;;;28.76;34.84;96941.16;5096001;28;20041;-26
2022/07/08 08:05:29;;;;;;;4.13;0.85;;;;;;;28.73;34.81;96939.44;5095901;28;20023;-27
2022/07/08 08:07:54;;;;;;;2.50;0.75;;;;;;;28.69;34.80;96944.59;5095308;28;20402;-26
2022/07/08 08:10:19;;;;;;;1.85;0.73;;;;;;;28.63;34.55;96945.97;5095844;28;20535;-28
2022/07/08 08:12:45;;;;;;;1.98;0.57;;;;;;;28.65;34.53;96946.97;5096006;28;20028;-27
2022/07/08 08:15:11;;;;;;;2.10;0.80;;;;;;;28.68;34.34;96945.91;5095724;28;20020;-27
2022/07/08 08:17:40;;;;;;;1.30;0.50;;;;;;;28.70;34.08;96939.75;5095697;28;20099;-28
2022/07/08 08:20:07;;;;;;;1.80;0.60;;;;;;;28.52;34.39;96952.53;5095821;28;20030;-27
2022/07/08 08:22:33;;;;;;;1.33;0.60;;;;;;;28.55;34.38;96938.25;5095608;28;20433;-26
2022/07/08 08:24:59;;;;;;;1.77;0.50;;;;;;;28.53;34.67;96943.63;5094217;28;20059;-27
2022/07/08 08:27:24;;;;;;;2.05;0.70;;;;;;;26.24;35.36;96947.81;5095080;28;20056;-26
2022/07/08 08:29:50;;;;;;;6.05;1.00;;;;;;;26.32;36.45;96940.47;5095172;28;20389;-27
2022/07/08 08:32:15;;;;;;;3.10;0.70;;;;;;;26.84;35.23;96938.16;5092263;28;20059;-30
2022/07/08 08:34:41;;;;;;;2.47;0.82;;;;;;;27.39;34.67;96926.88;5093201;28;20063;-29
2022/07/08 08:37:07;;;;;;;3.13;0.98;;;;;;;26.65;35.54;96942.91;5094905;28;20020;-27
2022/07/08 08:39:33;;;;;;;2.35;0.57;;;;;;;26.68;35.28;96941.88;5095262;28;20036;-27
2022/07/08 08:41:59;;;;;;;9.73;3.63;;;;;;;26.33;36.92;96922.53;5095041;28;20020;-27
2022/07/08 08:44:25;;;;;;;13.63;7.85;;;;;;;26.53;36.55;96924.84;5095096;28;20031;-28
2022/07/08 08:46:53;;;;;;;6.90;3.15;;;;;;;26.30;35.77;96931.91;5095303;28;20024;-27
2022/07/08 08:49:19;;;;;;;29.73;11.32;;;;;;;26.07;37.03;96932.06;5095032;28;20020;-28
2022/07/08 08:51:49;;;;;;;6.95;2.22;;;;;;;26.13;36.10;96943.88;5094999;28;20024;-27
2022/07/08 08:54:17;;;;;;;11.18;2.95;;;;;;;27.04;34.91;96938.97;5094966;28;20020;-28
2022/07/08 08:56:45;;;;;;;10.15;3.17;;;;;;;27.46;34.31;96940.94;5093653;28;20027;-28
2022/07/08 08:59:11;;;;;;;4.28;1.80;;;;;;;27.36;33.64;96941.84;5094075;28;20061;-29
2022/07/08 09:01:36;;;;;;;6.22;2.45;;;;;;;27.81;33.55;96934.41;5094771;28;20498;-28
2022/07/08 09:04:02;;;;;;;3.10;1.33;;;;;;;27.49;33.42;96925.97;5093490;28;20035;-30
2022/07/08 09:06:28;;;;;;;7.68;2.05;;;;;;;27.66;33.81;96925.00;5094443;28;20107;-29
2022/07/08 09:08:53;;;;;;;4.75;1.83;;;;;;;27.85;33.75;96925.72;5094705;28;20035;-29
2022/07/08 09:11:22;;;;;;;5.30;1.98;;;;;;;27.89;33.83;96917.81;5094481;28;20035;-29
2022/07/08 09:14:16;;;;;;;5.35;1.95;;;;;;;27.84;32.49;96913.81;5093392;28;20027;-29
2022/07/08 09:17:16;;;;;;;7.40;1.40;;;;;;;27.78;33.73;96920.75;5093211;28;20374;-28
2022/07/08 09:19:42;;;;;;;4.15;1.52;;;;;;;28.08;33.36;96926.84;5094419;28;20028;-29
2022/07/08 09:22:09;;;;;;;4.15;1.50;;;;;;;27.91;33.46;96922.84;5094478;28;20069;-29
2022/07/08 09:24:35;;;;;;;4.85;1.42;;;;;;;27.64;33.95;96916.41;5094377;28;20016;-29
2022/07/08 09:27:08;;;;;;;6.43;1.80;;;;;;;27.80;33.57;96934.94;5094543;28;20039;-28
2022/07/08 09:29:34;;;;;;;5.00;1.45;;;;;;;27.86;33.26;96924.44;5094351;28;20020;-29
2022/07/08 09:32:11;;;;;;;4.05;1.20;;;;;;;27.74;34.04;96945.41;5094533;28;20107;-29
2022/07/08 09:34:36;;;;;;;4.35;1.63;;;;;;;27.77;33.39;96930.41;5093975;28;20417;-28
2022/07/08 09:37:18;;;;;;;3.25;1.00;;;;;;;27.91;33.43;96931.97;5094299;28;20024;-29
2022/07/08 09:39:45;;;;;;;7.87;1.10;;;;;;;27.61;33.38;96948.88;5094079;28;20024;-29
2022/07/08 09:42:13;;;;;;;4.85;0.90;;;;;;;27.53;33.87;96934.78;5094169;28;20032;-28
2022/07/08 09:44:39;;;;;;;4.18;0.98;;;;;;;27.52;34.17;96941.63;5094018;28;20102;-29
2022/07/08 09:47:12;;;;;;;2.42;1.05;;;;;;;27.61;33.73;96936.97;5093970;28;20488;-30
2022/07/08 09:49:41;;;;;;;;;;;;;;;27.42;34.15;96951.66;5094306;28;20058;-29
2022/07/08 09:52:08;;;;;;;2.08;1.10;;;;;;;27.68;33.64;96939.16;5093939;28;20042;-30
2022/07/08 09:54:34;;;;;;;2.70;0.90;;;;;;;27.72;33.60;96945.16;5093851;28;20024;-29
2022/07/08 09:57:02;;;;;;;2.83;0.90;;;;;;;27.95;33.29;96977.00;5093831;28;20026;-30
2022/07/08 09:59:28;;;;;;;1.15;0.60;;;;;;;28.02;33.12;96978.44;5093722;28;20363;-29
2022/07/08 10:01:54;;;;;;;2.45;0.80;;;;;;;28.03;32.65;96975.13;5093820;28;20374;-29
2022/07/08 10:04:22;;;;;;;2.65;1.15;;;;;;;28.01;33.13;96971.34;5093702;28;20019;-29
2022/07/08 10:06:48;;;;;;;2.78;0.80;;;;;;;28.10;33.08;96982.09;5093693;28;20040;-31
2022/07/08 10:09:14;;;;;;;1.58;0.65;;;;;;;28.15;33.03;96959.72;5093561;28;20115;-29
2022/07/08 10:11:40;;;;;;;2.55;0.70;;;;;;;28.04;32.39;96973.09;5093587;28;20078;-29
2022/07/08 10:14:08;;;;;;;3.20;0.70;;;;;;;28.10;32.82;96979.31;5093529;28;20024;-28
2022/07/08 10:16:34;;;;;;;1.50;0.60;;;;;;;27.91;32.89;96982.16;5093447;28;20073;-28
2022/07/08 10:19:03;;;;;;;1.45;0.60;;;;;;;27.70;33.08;96978.38;5093866;28;20024;-28
2022/07/08 10:21:32;;;;;;;1.52;0.77;;;;;;;27.86;33.55;96985.75;5092062;28;20024;-28
2022/07/08 10:23:58;;;;;;;1.10;0.95;;;;;;;27.76;33.07;97001.34;5093765;28;20024;-29
2022/07/08 10:26:35;;;;;;;4.03;0.90;;;;;;;27.73;33.01;96999.63;5093496;28;20035;-29
2022/07/08 10:29:06;;;;;;;0.65;0.50;;;;;;;27.74;31.85;97004.66;5093468;28;20153;-29
2022/07/08 10:31:46;;;;;;;2.17;1.10;;;;;;;28.14;31.83;97002.81;5093261;28;20032;-29
2022/07/08 10:34:13;;;;;;;1.77;1.30;;;;;;;28.32;31.27;97011.69;5093330;28;20221;-29
2022/07/08 10:36:56;;;;;;;2.20;1.00;;;;;;;28.12;31.89;96999.81;5093161;28;20028;-29
2022/07/08 10:39:29;;;;;;;7.45;1.23;;;;;;;28.20;31.93;97006.28;5093219;28;20038;-30
2022/07/08 10:42:05;;;;;;;3.05;0.90;;;;;;;27.98;30.93;97000.28;5093404;28;20024;-30
2022/07/08 10:44:52;;;;;;;2.25;1.00;;;;;;;28.27;31.21;97006.97;5093324;28;20077;-30
2022/07/08 10:47:25;;;;;;;2.15;1.33;;;;;;;27.87;31.83;97007.53;5093409;28;20031;-30
2022/07/08 10:49:50;;;;;;;2.55;0.70;;;;;;;27.78;32.29;97010.69;5093421;28;20020;-30
2022/07/08 10:52:21;;;;;;;1.85;0.70;;;;;;;27.89;32.14;97001.44;5093197;28;20027;-30
2022/07/08 10:54:46;;;;;;;1.33;0.80;;;;;;;28.05;31.23;97003.22;5093288;28;20435;-29
2022/07/08 10:57:27;;;;;;;0.93;0.70;;;;;;;27.97;32.29;97002.31;5093146;28;20035;-30
2022/07/08 11:00:08;;;;;;;3.25;0.90;;;;;;;27.94;31.38;96995.03;5093226;28;20024;-29
2022/07/08 11:02:41;;;;;;;1.48;0.52;;;;;;;27.93;31.44;97001.13;5091838;28;20385;-30
2022/07/08 11:05:07;;;;;;;1.17;0.93;;;;;;;28.10;30.70;97002.38;5093147;28;20038;-30
2022/07/08 11:07:34;;;;;;;1.95;0.50;;;;;;;28.11;30.80;97003.88;5092843;28;20501;-30
2022/07/08 11:10:11;;;;;;;1.73;1.00;;;;;;;28.35;30.89;97005.06;5093046;28;20032;-30
2022/07/08 11:12:46;;;;;;;2.50;1.80;;;;;;;28.12;31.28;96993.47;5093044;28;20034;-30
2022/07/08 11:15:17;;;;;;;2.10;0.60;;;;;;;28.24;31.50;97014.34;5093337;28;20024;-30
2022/07/08 11:17:43;;;;;;;1.17;0.60;;;;;;;28.28;31.05;97000.09;5092873;28;20036;-30
2022/07/08 11:20:14;;;;;;;2.30;1.40;;;;;;;28.26;30.81;97006.22;5092990;28;20028;-30
2022/07/08 11:22:42;;;;;;;3.17;1.00;;;;;;;28.44;30.80;97016.56;5095841;28;20024;-29
2022/07/08 11:25:13;;;;;;;4.05;1.92;;;;;;;28.26;30.80;97014.59;5096604;28;20016;-31
2022/07/08 11:27:39;;;;;;;3.97;1.83;;;;;;;28.28;31.40;97014.81;5096676;28;20024;-29
2022/07/08 11:30:08;;;;;;;0.60;0.60;;;;;;;28.30;30.97;97014.28;5096735;28;20046;-29
2022/07/08 11:32:33;;;;;;;3.30;0.90;;;;;;;28.26;31.12;97013.81;5096757;28;20037;-30
2022/07/08 11:34:59;;;;;;;2.22;1.17;;;;;;;28.23;31.47;97008.03;5096289;28;20047;-30